createdAt,value
2022-10-26T00:01:07.541Z,58.23
2022-10-26T00:03:36.150Z,58.04
2022-10-26T00:06:05.922Z,57.83
2022-10-26T00:08:33.731Z,57.72
2022-10-26T00:11:02.899Z,57.46
2022-10-26T00:13:30.798Z,57.44
2022-10-26T00:18:31.348Z,57.09
2022-10-26T00:21:03.728Z,57.02
2022-10-26T00:23:32.006Z,56.95
2022-10-26T00:25:59.774Z,57.09
2022-10-26T00:28:29.112Z,56.83
2022-10-26T00:30:58.660Z,56.73
2022-10-26T00:33:26.353Z,56.86
2022-10-26T00:35:54.331Z,56.66
2022-10-26T00:38:22.023Z,56.59
2022-10-26T00:40:49.861Z,56.86
2022-10-26T00:43:18.001Z,56.37
2022-10-26T00:45:47.198Z,56.54
2022-10-26T00:48:17.125Z,56.52
2022-10-26T00:50:45.373Z,56.29
2022-10-26T00:53:13.053Z,56.18
2022-10-26T00:55:43.050Z,56.16
2022-10-26T00:58:10.796Z,56.19
2022-10-26T01:00:39.749Z,56.12
2022-10-26T01:03:09.183Z,56.20
2022-10-26T01:05:38.580Z,56.16
2022-10-26T01:08:06.707Z,55.60
2022-10-26T01:10:34.606Z,56.02
2022-10-26T01:13:02.268Z,55.94
2022-10-26T01:15:32.649Z,55.77
2022-10-26T01:18:03.459Z,55.83
2022-10-26T01:21:02.542Z,55.80
2022-10-26T01:23:33.948Z,55.62
2022-10-26T01:26:30.030Z,55.78
2022-10-26T01:29:27.614Z,55.68
2022-10-26T01:31:58.031Z,55.68
2022-10-26T01:34:26.700Z,55.64
2022-10-26T01:36:55.735Z,55.90
2022-10-26T01:39:25.412Z,55.65
2022-10-26T01:41:55.225Z,55.71
2022-10-26T01:44:24.413Z,55.86
2022-10-26T01:46:52.928Z,55.72
2022-10-26T01:49:23.859Z,55.61
2022-10-26T01:51:51.611Z,55.53
2022-10-26T01:54:19.267Z,55.36
2022-10-26T01:56:48.314Z,55.23
2022-10-26T01:59:32.726Z,54.86
2022-10-26T02:02:29.150Z,55.17
2022-10-26T02:05:17.556Z,55.02
2022-10-26T02:07:49.871Z,55.15
2022-10-26T02:10:22.729Z,55.10
2022-10-26T02:12:53.842Z,55.13
2022-10-26T02:15:23.274Z,55.15
2022-10-26T02:17:52.514Z,55.11
2022-10-26T02:20:23.437Z,55.05
2022-10-26T02:22:51.811Z,54.93
2022-10-26T02:25:22.075Z,54.92
2022-10-26T02:27:52.502Z,54.95
2022-10-26T02:30:20.550Z,54.95
2022-10-26T02:32:49.626Z,54.78
2022-10-26T02:35:17.445Z,54.81
2022-10-26T02:37:46.973Z,54.84
2022-10-26T02:40:17.145Z,54.56
2022-10-26T02:42:45.964Z,54.54
2022-10-26T02:45:15.026Z,54.65
2022-10-26T02:47:42.897Z,54.75
2022-10-26T02:50:10.907Z,54.69
2022-10-26T02:52:41.848Z,54.79
2022-10-26T02:55:12.669Z,54.66
2022-10-26T02:57:41.595Z,54.29
2022-10-26T03:02:46.129Z,54.58
2022-10-26T03:05:17.620Z,54.33
2022-10-26T03:07:45.380Z,54.26
2022-10-26T03:10:14.623Z,54.22
2022-10-26T03:12:42.296Z,54.18
2022-10-26T03:15:10.825Z,54.17
2022-10-26T03:17:38.672Z,54.09
2022-10-26T03:20:07.658Z,54.04
2022-10-26T03:22:35.470Z,53.87
2022-10-26T03:25:03.596Z,53.93
2022-10-26T03:27:32.704Z,54.11
2022-10-26T03:30:00.490Z,53.76
2022-10-26T03:32:28.368Z,53.73
2022-10-26T03:34:56.190Z,53.89
2022-10-26T03:37:23.979Z,53.55
2022-10-26T03:39:51.680Z,53.78
2022-10-26T03:42:19.450Z,53.97
2022-10-26T03:44:48.555Z,53.27
2022-10-26T03:47:16.430Z,53.61
2022-10-26T03:49:44.135Z,54.14
2022-10-26T03:52:11.982Z,53.83
2022-10-26T03:54:39.621Z,53.86
2022-10-26T03:57:07.390Z,53.90
2022-10-26T03:59:35.171Z,53.62
2022-10-26T04:02:04.267Z,53.83
2022-10-26T04:04:31.988Z,53.67
2022-10-26T04:06:59.799Z,53.74
2022-10-26T04:09:27.506Z,53.90
2022-10-26T04:11:55.330Z,53.89
2022-10-26T04:14:22.972Z,53.67
2022-10-26T04:16:50.779Z,54.12
2022-10-26T04:19:20.023Z,53.66
2022-10-26T04:21:47.820Z,53.70
2022-10-26T04:24:16.231Z,53.97
2022-10-26T04:26:45.159Z,53.97
2022-10-26T04:29:13.726Z,54.28
2022-10-26T04:37:07.570Z,53.50
2022-10-26T04:39:39.797Z,53.92
2022-10-26T04:42:17.767Z,53.69
2022-10-26T04:44:45.693Z,53.53
2022-10-26T04:47:13.899Z,53.44
2022-10-26T04:49:41.731Z,53.25
2022-10-26T04:52:11.005Z,53.41
2022-10-26T04:54:39.020Z,53.21
2022-10-26T04:57:07.069Z,52.93
2022-10-26T04:59:35.135Z,53.03
2022-10-26T05:02:03.230Z,52.88
2022-10-26T05:04:31.253Z,52.77
2022-10-26T05:06:59.072Z,52.95
2022-10-26T05:09:28.233Z,52.61
2022-10-26T05:11:56.041Z,52.34
2022-10-26T05:14:23.881Z,52.62
2022-10-26T05:16:52.230Z,52.38
2022-10-26T05:19:20.175Z,52.32
2022-10-26T05:21:48.294Z,52.23
2022-10-26T05:24:16.365Z,51.85
2022-10-26T05:26:47.579Z,52.08
2022-10-26T05:29:15.553Z,51.76
2022-10-26T05:31:43.404Z,51.76
2022-10-26T05:34:13.100Z,51.36
2022-10-26T05:36:42.074Z,51.45
2022-10-26T05:39:10.125Z,51.80
2022-10-26T05:41:38.134Z,51.87
2022-10-26T05:44:07.636Z,51.43
2022-10-26T05:46:35.927Z,51.17
2022-10-26T05:49:03.963Z,51.29
2022-10-26T05:51:34.665Z,51.17
2022-10-26T05:54:02.663Z,51.30
2022-10-26T05:56:36.052Z,51.33
2022-10-26T05:59:04.635Z,50.78
2022-10-26T06:01:38.629Z,50.93
2022-10-26T06:04:22.604Z,50.76
2022-10-26T06:06:53.788Z,50.40
2022-10-26T06:09:22.294Z,50.82
2022-10-26T06:14:19.137Z,50.53
2022-10-26T06:16:58.086Z,50.42
2022-10-26T06:19:32.265Z,50.38
2022-10-26T06:22:06.436Z,50.25
2022-10-26T06:24:37.895Z,49.95
2022-10-26T06:27:09.163Z,49.99
2022-10-26T06:29:43.899Z,50.11
2022-10-26T06:32:13.140Z,49.93
2022-10-26T06:34:44.275Z,49.69
2022-10-26T06:37:12.343Z,50.09
2022-10-26T06:39:41.851Z,49.77
2022-10-26T06:42:10.547Z,49.63
2022-10-26T06:44:39.483Z,50.00
2022-10-26T06:47:08.713Z,49.68
2022-10-26T06:49:39.036Z,49.53
2022-10-26T06:52:11.564Z,49.62
2022-10-26T06:54:47.145Z,49.27
2022-10-26T06:57:16.162Z,49.19
2022-10-26T06:59:45.734Z,49.17
2022-10-26T07:02:14.748Z,48.91
2022-10-26T07:04:44.372Z,49.04
2022-10-26T07:07:14.379Z,48.58
2022-10-26T07:09:42.663Z,48.92
2022-10-26T07:12:10.636Z,48.60
2022-10-26T07:14:38.396Z,48.48
2022-10-26T07:17:06.386Z,48.45
2022-10-26T07:19:34.347Z,48.20
2022-10-26T07:22:03.679Z,48.59
2022-10-26T07:24:31.880Z,48.57
2022-10-26T07:26:59.794Z,48.12
2022-10-26T07:29:28.030Z,48.26
2022-10-26T07:31:55.841Z,48.38
2022-10-26T07:34:23.598Z,48.09
2022-10-26T07:36:51.889Z,48.11
2022-10-26T07:39:21.229Z,48.04
2022-10-26T07:41:49.011Z,48.32
2022-10-26T07:44:16.802Z,48.21
2022-10-26T07:46:44.886Z,47.98
2022-10-26T07:49:15.239Z,47.69
2022-10-26T07:51:45.700Z,47.71
2022-10-26T07:54:13.451Z,47.67
2022-10-26T07:56:42.647Z,47.54
2022-10-26T07:59:12.707Z,46.73
2022-10-26T08:01:40.580Z,44.89
2022-10-26T08:04:08.669Z,42.86
2022-10-26T08:06:36.527Z,41.72
2022-10-26T08:09:04.608Z,41.36
2022-10-26T08:11:32.404Z,40.08
2022-10-26T08:14:01.652Z,39.32
2022-10-26T08:16:29.507Z,38.86
2022-10-26T08:18:58.329Z,39.21
2022-10-26T08:21:39.140Z,39.19
2022-10-26T08:24:08.210Z,40.10
2022-10-26T08:26:36.024Z,39.05
2022-10-26T08:29:05.228Z,37.02
2022-10-26T08:31:32.986Z,35.91
2022-10-26T08:34:01.955Z,34.62
2022-10-26T08:36:29.931Z,34.16
2022-10-26T08:41:31.636Z,32.03
2022-10-26T08:44:01.169Z,30.92
2022-10-26T08:46:31.184Z,30.18
2022-10-26T08:49:00.461Z,28.87
2022-10-26T08:51:30.591Z,28.33
2022-10-26T08:53:58.851Z,28.28
2022-10-26T08:56:27.455Z,27.55
2022-10-26T08:58:56.597Z,26.81
2022-10-26T09:01:24.720Z,26.46
2022-10-26T09:03:54.019Z,26.83
2022-10-26T09:06:25.414Z,26.25
2022-10-26T09:08:58.406Z,27.10
2022-10-26T09:11:34.159Z,26.94
2022-10-26T09:14:05.743Z,27.25
2022-10-26T09:16:35.019Z,26.09
2022-10-26T09:19:15.589Z,25.06
2022-10-26T09:21:47.246Z,24.35
2022-10-26T09:24:15.858Z,24.34
2022-10-26T09:26:53.357Z,23.42
2022-10-26T09:29:21.848Z,22.58
2022-10-26T09:31:50.918Z,21.68
2022-10-26T09:34:27.292Z,21.14
2022-10-26T09:36:56.113Z,20.73
2022-10-26T09:39:27.843Z,20.46
2022-10-26T09:41:57.267Z,19.39
2022-10-26T09:44:27.240Z,19.59
2022-10-26T09:46:58.158Z,20.22
2022-10-26T09:49:31.288Z,20.68
2022-10-26T09:51:59.064Z,20.98
2022-10-26T09:54:26.889Z,20.32
2022-10-26T09:56:56.927Z,19.78
2022-10-26T09:59:25.653Z,19.57
2022-10-26T10:01:53.470Z,18.77
2022-10-26T10:04:22.841Z,18.41
2022-10-26T10:06:52.756Z,18.17
2022-10-26T10:09:22.105Z,18.59
2022-10-26T10:11:55.016Z,18.70
2022-10-26T10:14:23.688Z,19.38
2022-10-26T10:16:52.855Z,18.88
2022-10-26T10:19:23.514Z,18.67
2022-10-26T10:21:53.480Z,18.92
2022-10-26T10:24:31.352Z,17.77
2022-10-26T10:27:03.925Z,17.51
2022-10-26T10:29:32.672Z,16.80
2022-10-26T10:32:01.402Z,16.87
2022-10-26T10:34:31.567Z,16.04
2022-10-26T10:37:01.052Z,16.04
2022-10-26T10:39:37.727Z,15.62
2022-10-26T10:42:06.546Z,15.68
2022-10-26T10:44:34.548Z,14.69
2022-10-26T10:47:02.879Z,14.78
2022-10-26T10:49:30.995Z,14.93
2022-10-26T10:52:00.659Z,14.88
2022-10-26T10:54:30.443Z,14.20
2022-10-26T10:57:01.825Z,14.56
2022-10-26T10:59:38.195Z,14.79
2022-10-26T11:02:27.797Z,15.59
2022-10-26T11:05:04.144Z,16.72
2022-10-26T11:07:43.901Z,16.48
2022-10-26T11:10:13.497Z,16.30
2022-10-26T11:12:43.947Z,15.73
2022-10-26T11:15:14.480Z,15.44
2022-10-26T11:17:47.822Z,14.99
2022-10-26T11:20:17.633Z,15.34
2022-10-26T11:22:59.709Z,15.33
2022-10-26T11:25:29.362Z,15.37
2022-10-26T11:27:58.407Z,14.96
2022-10-26T11:30:26.856Z,14.50
2022-10-26T11:32:55.909Z,14.76
2022-10-26T11:35:26.843Z,14.89
2022-10-26T11:37:58.014Z,14.08
2022-10-26T11:40:29.822Z,14.16
2022-10-26T11:43:03.478Z,13.22
2022-10-26T11:45:33.685Z,13.26
2022-10-26T11:48:03.705Z,12.59
2022-10-26T11:50:34.141Z,12.86
2022-10-26T11:53:04.895Z,12.58
2022-10-26T11:55:32.829Z,12.51
2022-10-26T11:58:02.862Z,11.72
2022-10-26T12:00:32.298Z,12.62
2022-10-26T12:03:15.156Z,13.07
2022-10-26T12:06:11.435Z,14.81
2022-10-26T12:08:47.414Z,15.19
2022-10-26T12:11:17.981Z,15.65
2022-10-26T12:13:48.033Z,17.00
2022-10-26T12:16:22.121Z,17.65
2022-10-26T12:18:56.700Z,18.39
2022-10-26T12:21:26.431Z,19.72
2022-10-26T12:23:57.815Z,20.78
2022-10-26T12:26:39.926Z,21.62
2022-10-26T12:29:15.282Z,22.89
2022-10-26T12:31:44.185Z,23.82
2022-10-26T12:34:13.338Z,25.13
2022-10-26T12:36:51.301Z,26.42
2022-10-26T12:39:30.816Z,27.04
2022-10-26T12:42:14.179Z,27.28
2022-10-26T12:46:12.646Z,28.42
2022-10-26T12:48:40.709Z,29.07
2022-10-26T12:51:44.924Z,29.68
2022-10-26T12:54:19.351Z,30.54
2022-10-26T12:57:15.794Z,31.16
2022-10-26T12:59:45.400Z,31.24
2022-10-26T13:02:45.805Z,31.86
2022-10-26T13:05:53.255Z,32.31
2022-10-26T13:11:03.479Z,32.86
2022-10-26T13:13:33.871Z,33.23
2022-10-26T13:16:01.841Z,33.11
2022-10-26T13:18:29.561Z,33.45
2022-10-26T13:21:02.441Z,33.82
2022-10-26T13:23:31.138Z,33.97
2022-10-26T13:26:07.038Z,33.83
2022-10-26T13:28:47.794Z,34.38
2022-10-26T13:31:37.377Z,34.29
2022-10-26T13:34:06.526Z,34.62
2022-10-26T13:36:35.132Z,35.08
2022-10-26T13:39:05.366Z,35.00
2022-10-26T13:41:35.201Z,35.20
2022-10-26T13:44:06.551Z,35.38
2022-10-26T13:46:37.195Z,35.41
2022-10-26T13:49:07.073Z,35.07
2022-10-26T13:51:40.415Z,35.43
2022-10-26T13:54:14.013Z,35.72
2022-10-26T13:56:44.041Z,36.02
2022-10-26T13:59:14.038Z,35.61
2022-10-26T14:01:41.825Z,35.50
2022-10-26T14:04:16.140Z,35.88
2022-10-26T14:06:43.972Z,36.05
2022-10-26T14:09:14.088Z,36.02
2022-10-26T14:11:45.136Z,35.79
2022-10-26T14:14:14.844Z,35.77
2022-10-26T14:16:46.543Z,35.85
2022-10-26T14:19:16.113Z,35.93
2022-10-26T14:21:49.837Z,36.02
2022-10-26T14:24:27.542Z,36.03
2022-10-26T14:27:03.639Z,36.33
2022-10-26T14:29:34.162Z,36.36
2022-10-26T14:32:01.887Z,36.25
2022-10-26T14:34:29.617Z,36.41
2022-10-26T14:36:59.192Z,36.57
2022-10-26T14:39:31.221Z,36.79
2022-10-26T14:41:59.361Z,36.99
2022-10-26T14:44:28.042Z,37.30
2022-10-26T14:46:57.141Z,37.29
2022-10-26T14:49:25.945Z,37.24
2022-10-26T14:51:58.047Z,37.58
2022-10-26T14:54:26.649Z,37.42
2022-10-26T14:56:54.418Z,37.65
2022-10-26T14:59:23.420Z,37.85
2022-10-26T15:01:52.341Z,37.56
2022-10-26T15:04:34.830Z,37.81
2022-10-26T15:07:03.909Z,37.67
2022-10-26T15:09:33.859Z,38.28
2022-10-26T15:12:02.891Z,38.06
2022-10-26T15:14:32.699Z,38.10
2022-10-26T15:17:00.392Z,38.17
2022-10-26T15:19:28.122Z,38.23
2022-10-26T15:21:57.176Z,38.75
2022-10-26T15:24:35.920Z,38.67
2022-10-26T15:27:12.399Z,38.94
2022-10-26T15:29:42.102Z,38.83
2022-10-26T15:32:37.016Z,39.11
2022-10-26T15:35:25.426Z,39.51
2022-10-26T15:37:55.619Z,39.61
2022-10-26T15:42:56.725Z,40.14
2022-10-26T15:45:25.545Z,39.94
2022-10-26T15:47:53.888Z,40.33
2022-10-26T15:50:22.525Z,40.45
2022-10-26T15:52:50.714Z,40.81
2022-10-26T15:55:20.125Z,40.89
2022-10-26T15:57:48.172Z,41.12
2022-10-26T16:00:17.042Z,41.24
2022-10-26T16:02:45.427Z,41.12
2022-10-26T16:05:13.531Z,41.19
2022-10-26T16:07:43.128Z,41.20
2022-10-26T16:10:14.403Z,41.43
2022-10-26T16:12:43.805Z,41.57
2022-10-26T16:15:17.268Z,41.37
2022-10-26T16:17:45.260Z,41.87
2022-10-26T16:20:14.676Z,41.65
2022-10-26T16:22:46.925Z,41.51
2022-10-26T16:25:15.784Z,41.85
2022-10-26T16:27:44.942Z,42.05
2022-10-26T16:30:14.014Z,42.11
2022-10-26T16:32:41.811Z,42.36
2022-10-26T16:35:10.308Z,42.50
2022-10-26T16:37:38.000Z,42.78
2022-10-26T16:40:06.818Z,42.33
2022-10-26T16:42:34.525Z,42.58
2022-10-26T16:45:03.955Z,42.85
2022-10-26T16:47:35.502Z,43.08
2022-10-26T16:50:03.689Z,42.82
2022-10-26T16:52:31.317Z,43.22
2022-10-26T16:54:59.070Z,43.05
2022-10-26T16:57:26.719Z,43.34
2022-10-26T16:59:55.419Z,43.16
2022-10-26T17:02:24.582Z,43.63
2022-10-26T17:04:53.363Z,43.63
2022-10-26T17:07:21.008Z,43.88
2022-10-26T17:09:48.659Z,43.81
2022-10-26T17:12:17.477Z,44.11
2022-10-26T17:14:45.221Z,43.96
2022-10-26T17:17:13.111Z,43.99
2022-10-26T17:19:42.179Z,44.36
2022-10-26T17:22:20.856Z,44.10
2022-10-26T17:24:48.668Z,44.12
2022-10-26T17:27:17.413Z,44.13
2022-10-26T17:29:46.332Z,44.59
2022-10-26T17:32:14.833Z,44.60
2022-10-26T17:34:46.407Z,44.56
2022-10-26T17:37:14.125Z,44.60
2022-10-26T17:39:41.814Z,44.82
2022-10-26T17:42:09.594Z,44.97
2022-10-26T17:44:39.083Z,45.26
2022-10-26T17:47:06.881Z,45.05
2022-10-26T17:49:36.277Z,45.51
2022-10-26T17:52:06.661Z,45.25
2022-10-26T17:54:35.412Z,45.20
2022-10-26T17:57:03.253Z,45.37
2022-10-26T17:59:33.019Z,45.67
2022-10-26T18:02:00.764Z,45.93
2022-10-26T18:04:28.742Z,45.88
2022-10-26T18:06:56.432Z,46.04
2022-10-26T18:09:25.410Z,45.89
2022-10-26T18:11:55.123Z,46.01
2022-10-26T18:14:23.778Z,45.77
2022-10-26T18:16:51.636Z,46.16
2022-10-26T18:19:19.302Z,46.05
2022-10-26T18:21:47.056Z,46.08
2022-10-26T18:24:14.669Z,45.87
2022-10-26T18:26:43.717Z,45.94
2022-10-26T18:29:11.520Z,46.01
2022-10-26T18:31:39.227Z,45.89
2022-10-26T18:34:07.041Z,46.07
2022-10-26T18:39:08.511Z,46.06
2022-10-26T18:41:36.280Z,46.05
2022-10-26T18:44:05.642Z,46.21
2022-10-26T18:46:33.930Z,46.10
2022-10-26T18:49:01.663Z,46.34
2022-10-26T18:51:31.411Z,46.68
2022-10-26T18:53:59.233Z,46.99
2022-10-26T18:56:27.331Z,47.02
2022-10-26T18:58:56.435Z,47.49
2022-10-26T19:01:26.279Z,47.38
2022-10-26T19:03:54.352Z,47.90
2022-10-26T19:06:23.541Z,48.17
2022-10-26T19:08:51.252Z,48.57
2022-10-26T19:11:19.685Z,48.51
2022-10-26T19:19:57.385Z,49.47
2022-10-26T19:22:26.987Z,49.39
2022-10-26T19:24:57.018Z,49.74
2022-10-26T19:27:32.671Z,49.92
2022-10-26T19:30:04.515Z,50.10
2022-10-26T19:32:33.416Z,50.48
2022-10-26T19:35:07.921Z,50.54
2022-10-26T19:37:36.384Z,51.01
2022-10-26T19:40:04.911Z,50.98
2022-10-26T19:42:33.318Z,50.92
2022-10-26T19:52:04.816Z,51.36
2022-10-26T19:54:33.053Z,51.69
2022-10-26T19:57:01.418Z,51.54
2022-10-26T19:59:29.801Z,52.06
2022-10-26T20:02:00.671Z,52.47
2022-10-26T20:04:29.754Z,52.37
2022-10-26T20:07:18.346Z,52.18
2022-10-26T20:09:59.762Z,52.23
2022-10-26T20:12:34.913Z,52.80
2022-10-26T20:15:04.096Z,52.63
2022-10-26T20:18:22.255Z,52.68
2022-10-26T20:21:04.321Z,52.98
2022-10-26T20:27:06.701Z,53.15
2022-10-26T20:29:50.148Z,53.49
2022-10-26T20:32:19.257Z,53.53
2022-10-26T20:34:54.067Z,53.59
2022-10-26T20:38:03.542Z,53.23
2022-10-26T20:40:55.911Z,53.58
2022-10-26T20:43:28.406Z,53.44
2022-10-26T20:46:17.145Z,53.76
2022-10-26T20:49:17.679Z,53.45
2022-10-26T20:52:21.163Z,54.09
2022-10-26T20:54:54.491Z,53.66
2022-10-26T20:57:44.360Z,53.50
2022-10-26T21:00:15.010Z,53.38
2022-10-26T21:03:00.977Z,53.55
2022-10-26T21:05:34.685Z,53.66
2022-10-26T21:08:03.988Z,53.67
2022-10-26T21:10:58.992Z,53.33
2022-10-26T21:13:29.519Z,53.46
2022-10-26T21:16:01.286Z,53.37
2022-10-26T21:18:37.041Z,53.42
2022-10-26T21:21:34.273Z,53.85
2022-10-26T21:24:05.788Z,53.75
2022-10-26T21:30:26.386Z,53.72
2022-10-26T21:32:59.839Z,53.87
2022-10-26T21:38:50.308Z,54.28
2022-10-26T21:44:03.263Z,54.01
2022-10-26T21:46:38.436Z,54.57
2022-10-26T21:49:06.411Z,54.77
2022-10-26T21:51:34.919Z,54.91
2022-10-26T21:54:02.760Z,54.94
2022-10-26T21:56:30.507Z,55.12
2022-10-26T21:59:00.085Z,55.16
2022-10-26T22:01:28.062Z,55.21
2022-10-26T22:03:57.552Z,55.38
2022-10-26T22:06:26.432Z,55.28
2022-10-26T22:08:54.473Z,55.25
2022-10-26T22:11:23.391Z,55.19
2022-10-26T22:13:53.498Z,55.38
2022-10-26T22:16:22.220Z,55.28
2022-10-26T22:18:50.474Z,55.54
2022-10-26T22:21:19.867Z,55.25
2022-10-26T22:23:47.724Z,55.58
2022-10-26T22:26:16.797Z,55.91
2022-10-26T22:28:46.091Z,55.52
2022-10-26T22:31:15.084Z,55.85
2022-10-26T22:33:43.387Z,56.12
2022-10-26T22:36:13.138Z,56.38
2022-10-26T22:38:43.164Z,56.43
2022-10-26T22:41:11.390Z,56.23
2022-10-26T22:43:44.460Z,56.44
2022-10-26T22:46:12.911Z,56.25
2022-10-26T22:48:41.171Z,56.55
2022-10-26T22:51:09.402Z,56.52
2022-10-26T22:53:42.943Z,56.80
2022-10-26T22:56:11.566Z,56.73
2022-10-26T22:58:39.327Z,56.81
2022-10-26T23:01:08.224Z,56.81
2022-10-26T23:03:36.131Z,56.81
2022-10-26T23:06:04.142Z,56.53
2022-10-26T23:08:32.337Z,56.88
2022-10-26T23:11:05.337Z,57.02
2022-10-26T23:13:33.049Z,56.77
2022-10-26T23:16:07.222Z,57.07
2022-10-26T23:21:10.780Z,57.26
2022-10-26T23:23:38.567Z,57.16
2022-10-26T23:26:08.665Z,56.83
2022-10-26T23:28:36.587Z,56.53
2022-10-26T23:31:04.539Z,56.42
2022-10-26T23:36:01.158Z,56.72
2022-10-26T23:38:28.790Z,56.50
2022-10-26T23:40:57.241Z,56.37
2022-10-26T23:43:26.569Z,56.65
2022-10-26T23:45:54.414Z,56.79
2022-10-26T23:48:22.360Z,56.89
2022-10-26T23:50:50.677Z,56.62
2022-10-26T23:53:19.413Z,56.76
2022-10-26T23:55:48.227Z,56.96
2022-10-26T23:58:15.999Z,56.69
